Venus Seven — H9RN — position and weather

sailwx.info

Track history (hours):
 
Tides and Currents Weather Stations Pressure Air Temp Water Temp Dewpoint Dewpoint Depression Visibility Wind Speed Wind Dir Waves Ship Positions

Venus Seven

Last reported at 2017-Feb-21 21:32 UTC. Time now 2017-Feb-21 21:42 UTC.
Position N 34°39' E 135°26'.

Length 93 m; draft 7 m.

Type: Cargo ship. MMSI: 353405000.

Date/timePositionNaut miles runAvg speedWind from/ knotsBaromVisibWave heightAir tempDewpointWater temp
2017-Feb-21 21:32N 34°39' E 135°26'0 0.0
2017-Feb-21 20:32N 34°39' E 135°26'0 0.0
2017-Feb-21 19:26N 34°39' E 135°26'0 0.0
2017-Feb-21 18:26N 34°39' E 135°26'0 0.0
2017-Feb-21 17:26N 34°39' E 135°26'0 0.0
2017-Feb-21 16:32N 34°39' E 135°26'0 0.0
2017-Feb-21 15:20N 34°39' E 135°26'0 0.0
2017-Feb-21 14:32N 34°39' E 135°26'0 0.0
2017-Feb-21 13:32N 34°39' E 135°26'0 0.0
2017-Feb-21 12:32N 34°39' E 135°26'0 0.0
2017-Feb-21 11:32N 34°39' E 135°26'0 0.0
2017-Feb-21 10:20N 34°39' E 135°26'0 0.0
2017-Feb-21 09:32N 34°39' E 135°26'0 0.0
2017-Feb-21 07:31N 34°39' E 135°26'0 0.0
2017-Feb-21 06:31N 34°39' E 135°26'0 0.0
2017-Feb-21 05:25N 34°39' E 135°26'0 0.0
2017-Feb-21 04:19N 34°39' E 135°26'0 0.0
2017-Feb-21 03:31N 34°39' E 135°26'0 0.0
2017-Feb-21 02:25N 34°39' E 135°26'0 0.0
2017-Feb-21 01:33N 34°39' E 135°26'7 6.8
2017-Feb-21 00:32N 34°35' E 135°19'10 9.9
2017-Feb-20 23:33N 34°28' E 135°11'1411.0
2017-Feb-20 22:17N 34°18' E 134°59'810.5
2017-Feb-20 21:33N 34°10' E 134°60'  
2017-Feb-16 10:33N 22°44' E 120°08'1111.3
2017-Feb-16 09:33N 22°37' E 120°17'0 0.1
2017-Feb-16 08:33N 22°37' E 120°17'0 0.0
2017-Feb-16 07:30N 22°37' E 120°17'0 0.0
2017-Feb-16 06:33N 22°37' E 120°17'0 0.0
2017-Feb-16 05:33N 22°37' E 120°17'0 0.0
2017-Feb-16 04:30N 22°37' E 120°17'0 0.0
2017-Feb-16 03:33N 22°37' E 120°17'0 0.0
2017-Feb-16 02:33N 22°37' E 120°17'0 0.0
2017-Feb-16 01:33N 22°37' E 120°17'0 0.0
2017-Feb-16 00:33N 22°37' E 120°17'0 0.0
2017-Feb-15 23:30N 22°37' E 120°17'0 0.0
2017-Feb-15 22:33N 22°37' E 120°17'0 0.0
2017-Feb-15 21:33N 22°37' E 120°17'0 0.0
2017-Feb-15 20:33N 22°37' E 120°17'0 0.0
2017-Feb-15 19:30N 22°37' E 120°17'0 0.1
2017-Feb-15 18:27N 22°37' E 120°17'0 0.1
2017-Feb-15 17:33N 22°37' E 120°17'0 0.0
2017-Feb-15 16:33N 22°37' E 120°17'0 0.0
2017-Feb-15 15:33N 22°37' E 120°17'0 0.0
2017-Feb-15 14:33N 22°37' E 120°17'0 0.0
2017-Feb-15 13:27N 22°37' E 120°17'0 0.0
2017-Feb-15 12:33N 22°37' E 120°17'0 0.0
2017-Feb-15 11:33N 22°37' E 120°17'0 0.0
2017-Feb-15 10:33N 22°37' E 120°17'0 0.0
2017-Feb-15 09:30N 22°37' E 120°17'0 0.0
2017-Feb-15 08:33N 22°37' E 120°17'6 6.2
2017-Feb-15 07:33N 22°39' E 120°11'  
Track history (hours):
 
Tides and Currents Weather Stations Pressure Air Temp Water Temp Dewpoint Dewpoint Depression Visibility Wind Speed Wind Dir Waves Ship Positions

Venus Seven

Last reported at 2017-Feb-21 21:32 UTC. Time now 2017-Feb-21 21:42 UTC.
Position N 34°39' E 135°26'.

Length 93 m; draft 7 m.

Type: Cargo ship. MMSI: 353405000.

Date/timePositionNaut miles runAvg speedWind from/ knotsBaromVisibWave heightAir tempDewpointWater temp
2017-Feb-21 21:32N 34°39' E 135°26'0 0.0
2017-Feb-21 20:32N 34°39' E 135°26'0 0.0
2017-Feb-21 19:26N 34°39' E 135°26'0 0.0
2017-Feb-21 18:26N 34°39' E 135°26'0 0.0
2017-Feb-21 17:26N 34°39' E 135°26'0 0.0
2017-Feb-21 16:32N 34°39' E 135°26'0 0.0
2017-Feb-21 15:20N 34°39' E 135°26'0 0.0
2017-Feb-21 14:32N 34°39' E 135°26'0 0.0
2017-Feb-21 13:32N 34°39' E 135°26'0 0.0
2017-Feb-21 12:32N 34°39' E 135°26'0 0.0
2017-Feb-21 11:32N 34°39' E 135°26'0 0.0
2017-Feb-21 10:20N 34°39' E 135°26'0 0.0
2017-Feb-21 09:32N 34°39' E 135°26'0 0.0
2017-Feb-21 07:31N 34°39' E 135°26'0 0.0
2017-Feb-21 06:31N 34°39' E 135°26'0 0.0
2017-Feb-21 05:25N 34°39' E 135°26'0 0.0
2017-Feb-21 04:19N 34°39' E 135°26'0 0.0
2017-Feb-21 03:31N 34°39' E 135°26'0 0.0
2017-Feb-21 02:25N 34°39' E 135°26'0 0.0
2017-Feb-21 01:33N 34°39' E 135°26'7 6.8
2017-Feb-21 00:32N 34°35' E 135°19'10 9.9
2017-Feb-20 23:33N 34°28' E 135°11'1411.0
2017-Feb-20 22:17N 34°18' E 134°59'810.5
2017-Feb-20 21:33N 34°10' E 134°60'  
2017-Feb-16 10:33N 22°44' E 120°08'1111.3
2017-Feb-16 09:33N 22°37' E 120°17'0 0.1
2017-Feb-16 08:33N 22°37' E 120°17'0 0.0
2017-Feb-16 07:30N 22°37' E 120°17'0 0.0
2017-Feb-16 06:33N 22°37' E 120°17'0 0.0
2017-Feb-16 05:33N 22°37' E 120°17'0 0.0
2017-Feb-16 04:30N 22°37' E 120°17'0 0.0
2017-Feb-16 03:33N 22°37' E 120°17'0 0.0
2017-Feb-16 02:33N 22°37' E 120°17'0 0.0
2017-Feb-16 01:33N 22°37' E 120°17'0 0.0
2017-Feb-16 00:33N 22°37' E 120°17'0 0.0
2017-Feb-15 23:30N 22°37' E 120°17'0 0.0
2017-Feb-15 22:33N 22°37' E 120°17'0 0.0
2017-Feb-15 21:33N 22°37' E 120°17'0 0.0
2017-Feb-15 20:33N 22°37' E 120°17'0 0.0
2017-Feb-15 19:30N 22°37' E 120°17'0 0.1
2017-Feb-15 18:27N 22°37' E 120°17'0 0.1
2017-Feb-15 17:33N 22°37' E 120°17'0 0.0
2017-Feb-15 16:33N 22°37' E 120°17'0 0.0
2017-Feb-15 15:33N 22°37' E 120°17'0 0.0
2017-Feb-15 14:33N 22°37' E 120°17'0 0.0
2017-Feb-15 13:27N 22°37' E 120°17'0 0.0
2017-Feb-15 12:33N 22°37' E 120°17'0 0.0
2017-Feb-15 11:33N 22°37' E 120°17'0 0.0
2017-Feb-15 10:33N 22°37' E 120°17'0 0.0
2017-Feb-15 09:30N 22°37' E 120°17'0 0.0
2017-Feb-15 08:33N 22°37' E 120°17'6 6.2
2017-Feb-15 07:33N 22°39' E 120°11'  

Dump ship's entire track history